sensor_id;sensor_type;location;lat;lon;timestamp;temperature;humidity
76613;DHT22;65507;48.454;-2.058;2023-03-25T00:01:20;10.50;76.20
76613;DHT22;65507;48.454;-2.058;2023-03-25T00:03:50;10.50;76.20
76613;DHT22;65507;48.454;-2.058;2023-03-25T00:06:17;10.50;76.20
76613;DHT22;65507;48.454;-2.058;2023-03-25T00:08:43;10.50;76.20
76613;DHT22;65507;48.454;-2.058;2023-03-25T00:11:08;10.50;76.30
76613;DHT22;65507;48.454;-2.058;2023-03-25T00:13:34;10.50;76.30
76613;DHT22;65507;48.454;-2.058;2023-03-25T00:16:00;10.50;76.30
76613;DHT22;65507;48.454;-2.058;2023-03-25T00:18:27;10.50;76.30
76613;DHT22;65507;48.454;-2.058;2023-03-25T00:20:58;10.40;76.40
76613;DHT22;65507;48.454;-2.058;2023-03-25T00:23:24;10.40;76.40
76613;DHT22;65507;48.454;-2.058;2023-03-25T00:25:49;10.40;76.30
76613;DHT22;65507;48.454;-2.058;2023-03-25T00:28:16;10.40;76.40
76613;DHT22;65507;48.454;-2.058;2023-03-25T00:30:43;10.50;76.50
76613;DHT22;65507;48.454;-2.058;2023-03-25T00:33:09;10.40;76.40
76613;DHT22;65507;48.454;-2.058;2023-03-25T00:35:42;10.40;76.40
76613;DHT22;65507;48.454;-2.058;2023-03-25T00:38:09;10.40;76.40
76613;DHT22;65507;48.454;-2.058;2023-03-25T00:40:35;10.40;76.40
76613;DHT22;65507;48.454;-2.058;2023-03-25T00:43:01;10.40;76.40
76613;DHT22;65507;48.454;-2.058;2023-03-25T00:45:27;10.30;76.30
76613;DHT22;65507;48.454;-2.058;2023-03-25T00:47:52;10.40;76.40
76613;DHT22;65507;48.454;-2.058;2023-03-25T00:50:18;10.30;76.40
76613;DHT22;65507;48.454;-2.058;2023-03-25T00:52:43;10.30;76.30
76613;DHT22;65507;48.454;-2.058;2023-03-25T00:55:09;10.30;76.50
76613;DHT22;65507;48.454;-2.058;2023-03-25T00:57:35;10.30;76.40
76613;DHT22;65507;48.454;-2.058;2023-03-25T01:00:01;10.20;76.40
76613;DHT22;65507;48.454;-2.058;2023-03-25T01:02:26;10.20;76.40
76613;DHT22;65507;48.454;-2.058;2023-03-25T01:04:52;10.20;76.60
76613;DHT22;65507;48.454;-2.058;2023-03-25T01:07:18;10.20;76.50
76613;DHT22;65507;48.454;-2.058;2023-03-25T01:09:45;10.20;76.50
76613;DHT22;65507;48.454;-2.058;2023-03-25T01:12:15;10.20;76.60
76613;DHT22;65507;48.454;-2.058;2023-03-25T01:14:41;10.20;76.60
76613;DHT22;65507;48.454;-2.058;2023-03-25T01:17:06;10.20;76.60
76613;DHT22;65507;48.454;-2.058;2023-03-25T01:19:32;10.10;76.60
76613;DHT22;65507;48.454;-2.058;2023-03-25T01:21:57;10.10;76.70
76613;DHT22;65507;48.454;-2.058;2023-03-25T01:24:24;10.10;76.60
76613;DHT22;65507;48.454;-2.058;2023-03-25T01:26:50;10.10;76.60
76613;DHT22;65507;48.454;-2.058;2023-03-25T01:29:16;10.10;76.60
76613;DHT22;65507;48.454;-2.058;2023-03-25T01:31:42;10.10;76.60
76613;DHT22;65507;48.454;-2.058;2023-03-25T01:34:07;10.10;76.60
76613;DHT22;65507;48.454;-2.058;2023-03-25T01:36:33;10.10;76.60
76613;DHT22;65507;48.454;-2.058;2023-03-25T01:39:00;10.10;76.60
76613;DHT22;65507;48.454;-2.058;2023-03-25T01:41:27;10.10;76.70
76613;DHT22;65507;48.454;-2.058;2023-03-25T01:44:00;10.10;76.70
76613;DHT22;65507;48.454;-2.058;2023-03-25T01:46:25;10.00;76.70
76613;DHT22;65507;48.454;-2.058;2023-03-25T01:48:51;10.00;76.70
76613;DHT22;65507;48.454;-2.058;2023-03-25T01:51:17;10.00;76.70
76613;DHT22;65507;48.454;-2.058;2023-03-25T01:53:45;10.00;76.70
76613;DHT22;65507;48.454;-2.058;2023-03-25T01:56:12;10.00;76.80
76613;DHT22;65507;48.454;-2.058;2023-03-25T01:58:38;10.00;76.90
76613;DHT22;65507;48.454;-2.058;2023-03-25T02:01:04;10.00;76.90
76613;DHT22;65507;48.454;-2.058;2023-03-25T02:03:31;9.90;76.90
76613;DHT22;65507;48.454;-2.058;2023-03-25T02:06:08;9.90;76.90
76613;DHT22;65507;48.454;-2.058;2023-03-25T02:08:36;9.90;76.90
76613;DHT22;65507;48.454;-2.058;2023-03-25T02:11:03;9.40;76.70
76613;DHT22;65507;48.454;-2.058;2023-03-25T02:13:29;9.90;77.00
76613;DHT22;65507;48.454;-2.058;2023-03-25T02:23:52;9.90;77.00
76613;DHT22;65507;48.454;-2.058;2023-03-25T02:26:26;9.90;77.00
76613;DHT22;65507;48.454;-2.058;2023-03-25T02:31:44;10.00;76.90
76613;DHT22;65507;48.454;-2.058;2023-03-25T02:44:48;10.10;76.80
76613;DHT22;65507;48.454;-2.058;2023-03-25T02:47:18;10.10;76.80
76613;DHT22;65507;48.454;-2.058;2023-03-25T02:49:50;10.10;76.70
76613;DHT22;65507;48.454;-2.058;2023-03-25T02:52:23;10.10;76.70
76613;DHT22;65507;48.454;-2.058;2023-03-25T02:54:50;10.10;76.80
76613;DHT22;65507;48.454;-2.058;2023-03-25T02:57:17;10.10;76.80
76613;DHT22;65507;48.454;-2.058;2023-03-25T02:59:44;10.00;76.80
76613;DHT22;65507;48.454;-2.058;2023-03-25T03:02:10;10.00;76.90
76613;DHT22;65507;48.454;-2.058;2023-03-25T03:04:46;10.00;76.90
76613;DHT22;65507;48.454;-2.058;2023-03-25T03:07:14;10.00;76.90
76613;DHT22;65507;48.454;-2.058;2023-03-25T03:09:45;10.00;76.90
76613;DHT22;65507;48.454;-2.058;2023-03-25T03:20:16;9.90;77.00
76613;DHT22;65507;48.454;-2.058;2023-03-25T03:22:48;9.90;77.00
76613;DHT22;65507;48.454;-2.058;2023-03-25T03:25:22;9.90;76.90
76613;DHT22;65507;48.454;-2.058;2023-03-25T03:32:48;9.90;76.90
76613;DHT22;65507;48.454;-2.058;2023-03-25T03:35:19;9.90;76.90
76613;DHT22;65507;48.454;-2.058;2023-03-25T03:37:50;9.80;76.90
76613;DHT22;65507;48.454;-2.058;2023-03-25T03:40:20;9.80;76.80
76613;DHT22;65507;48.454;-2.058;2023-03-25T03:43:03;9.80;76.80
76613;DHT22;65507;48.454;-2.058;2023-03-25T03:45:52;9.80;76.80
76613;DHT22;65507;48.454;-2.058;2023-03-25T03:48:21;9.80;76.70
76613;DHT22;65507;48.454;-2.058;2023-03-25T03:53:53;9.80;76.80
76613;DHT22;65507;48.454;-2.058;2023-03-25T03:56:28;9.80;76.80
76613;DHT22;65507;48.454;-2.058;2023-03-25T03:58:56;9.70;76.70
76613;DHT22;65507;48.454;-2.058;2023-03-25T04:01:31;9.70;76.80
76613;DHT22;65507;48.454;-2.058;2023-03-25T04:04:00;9.70;76.80
76613;DHT22;65507;48.454;-2.058;2023-03-25T04:06:31;9.70;76.90
76613;DHT22;65507;48.454;-2.058;2023-03-25T04:09:01;9.70;76.90
76613;DHT22;65507;48.454;-2.058;2023-03-25T04:11:41;9.70;77.00
76613;DHT22;65507;48.454;-2.058;2023-03-25T04:14:08;9.70;76.90
76613;DHT22;65507;48.454;-2.058;2023-03-25T04:16:34;9.80;76.80
76613;DHT22;65507;48.454;-2.058;2023-03-25T04:19:04;9.80;76.80
76613;DHT22;65507;48.454;-2.058;2023-03-25T04:21:30;9.80;76.70
76613;DHT22;65507;48.454;-2.058;2023-03-25T04:23:55;9.80;76.60
76613;DHT22;65507;48.454;-2.058;2023-03-25T04:26:28;9.90;76.60
76613;DHT22;65507;48.454;-2.058;2023-03-25T04:28:59;9.90;76.40
76613;DHT22;65507;48.454;-2.058;2023-03-25T04:31:25;10.00;76.50
76613;DHT22;65507;48.454;-2.058;2023-03-25T04:33:55;10.10;76.40
76613;DHT22;65507;48.454;-2.058;2023-03-25T04:36:22;10.10;76.20
76613;DHT22;65507;48.454;-2.058;2023-03-25T04:38:48;10.10;76.20
76613;DHT22;65507;48.454;-2.058;2023-03-25T04:41:13;10.20;76.20
76613;DHT22;65507;48.454;-2.058;2023-03-25T04:43:39;10.60;76.50
76613;DHT22;65507;48.454;-2.058;2023-03-25T04:46:07;10.10;76.20
76613;DHT22;65507;48.454;-2.058;2023-03-25T04:48:35;10.10;76.40
76613;DHT22;65507;48.454;-2.058;2023-03-25T04:51:06;10.10;76.50
76613;DHT22;65507;48.454;-2.058;2023-03-25T04:53:35;10.10;76.50
76613;DHT22;65507;48.454;-2.058;2023-03-25T04:56:01;10.10;76.60
76613;DHT22;65507;48.454;-2.058;2023-03-25T04:58:26;10.00;76.60
76613;DHT22;65507;48.454;-2.058;2023-03-25T05:00:53;10.00;76.70
76613;DHT22;65507;48.454;-2.058;2023-03-25T05:03:18;10.00;76.80
76613;DHT22;65507;48.454;-2.058;2023-03-25T05:05:50;10.00;76.90
76613;DHT22;65507;48.454;-2.058;2023-03-25T05:08:16;10.00;76.80
76613;DHT22;65507;48.454;-2.058;2023-03-25T05:10:42;10.00;76.90
76613;DHT22;65507;48.454;-2.058;2023-03-25T05:13:08;10.00;76.90
76613;DHT22;65507;48.454;-2.058;2023-03-25T05:15:34;10.00;76.90
76613;DHT22;65507;48.454;-2.058;2023-03-25T05:18:13;10.00;77.00
76613;DHT22;65507;48.454;-2.058;2023-03-25T05:20:39;10.00;77.00
76613;DHT22;65507;48.454;-2.058;2023-03-25T05:23:05;9.90;77.00
76613;DHT22;65507;48.454;-2.058;2023-03-25T05:25:39;9.90;77.00
76613;DHT22;65507;48.454;-2.058;2023-03-25T05:28:05;9.90;77.00
76613;DHT22;65507;48.454;-2.058;2023-03-25T05:30:37;9.90;77.00
76613;DHT22;65507;48.454;-2.058;2023-03-25T05:33:09;9.90;77.00
76613;DHT22;65507;48.454;-2.058;2023-03-25T05:35:35;9.90;77.00
76613;DHT22;65507;48.454;-2.058;2023-03-25T05:38:02;10.00;77.00
76613;DHT22;65507;48.454;-2.058;2023-03-25T05:40:28;10.00;76.90
76613;DHT22;65507;48.454;-2.058;2023-03-25T05:42:53;10.00;76.90
76613;DHT22;65507;48.454;-2.058;2023-03-25T05:45:20;10.00;76.80
76613;DHT22;65507;48.454;-2.058;2023-03-25T05:47:46;10.10;76.80
76613;DHT22;65507;48.454;-2.058;2023-03-25T05:50:11;10.10;77.60
76613;DHT22;65507;48.454;-2.058;2023-03-25T05:52:39;10.20;76.70
76613;DHT22;65507;48.454;-2.058;2023-03-25T05:55:06;10.20;76.70
76613;DHT22;65507;48.454;-2.058;2023-03-25T05:57:31;10.20;76.60
76613;DHT22;65507;48.454;-2.058;2023-03-25T05:59:57;10.20;76.60
76613;DHT22;65507;48.454;-2.058;2023-03-25T06:02:22;10.30;76.50
76613;DHT22;65507;48.454;-2.058;2023-03-25T06:04:48;10.30;76.50
76613;DHT22;65507;48.454;-2.058;2023-03-25T06:07:15;10.30;76.50
76613;DHT22;65507;48.454;-2.058;2023-03-25T06:09:47;10.30;76.40
76613;DHT22;65507;48.454;-2.058;2023-03-25T06:12:13;10.40;76.40
76613;DHT22;65507;48.454;-2.058;2023-03-25T06:14:39;10.40;76.40
76613;DHT22;65507;48.454;-2.058;2023-03-25T06:17:08;10.50;76.40
76613;DHT22;65507;48.454;-2.058;2023-03-25T06:19:33;10.50;76.30
76613;DHT22;65507;48.454;-2.058;2023-03-25T06:22:06;10.50;76.30
76613;DHT22;65507;48.454;-2.058;2023-03-25T06:24:36;10.50;76.30
76613;DHT22;65507;48.454;-2.058;2023-03-25T06:27:06;10.50;76.20
76613;DHT22;65507;48.454;-2.058;2023-03-25T06:29:32;10.50;76.20
76613;DHT22;65507;48.454;-2.058;2023-03-25T06:31:58;10.50;76.30
76613;DHT22;65507;48.454;-2.058;2023-03-25T06:34:23;10.50;76.30
76613;DHT22;65507;48.454;-2.058;2023-03-25T06:36:49;10.50;76.40
76613;DHT22;65507;48.454;-2.058;2023-03-25T06:39:19;10.50;77.30
76613;DHT22;65507;48.454;-2.058;2023-03-25T06:41:44;10.50;76.40
76613;DHT22;65507;48.454;-2.058;2023-03-25T06:44:10;10.50;76.50
76613;DHT22;65507;48.454;-2.058;2023-03-25T06:46:36;10.50;76.40
76613;DHT22;65507;48.454;-2.058;2023-03-25T06:49:01;10.50;76.40
76613;DHT22;65507;48.454;-2.058;2023-03-25T06:51:27;10.50;76.40
76613;DHT22;65507;48.454;-2.058;2023-03-25T06:53:52;10.60;76.50
76613;DHT22;65507;48.454;-2.058;2023-03-25T06:56:18;10.60;76.40
76613;DHT22;65507;48.454;-2.058;2023-03-25T06:58:44;10.60;76.40
76613;DHT22;65507;48.454;-2.058;2023-03-25T07:01:09;10.60;76.40
76613;DHT22;65507;48.454;-2.058;2023-03-25T07:03:35;10.70;76.40
76613;DHT22;65507;48.454;-2.058;2023-03-25T07:06:01;10.70;76.20
76613;DHT22;65507;48.454;-2.058;2023-03-25T07:08:27;10.70;76.10
76613;DHT22;65507;48.454;-2.058;2023-03-25T07:10:52;10.80;76.10
76613;DHT22;65507;48.454;-2.058;2023-03-25T07:13:18;10.80;76.00
76613;DHT22;65507;48.454;-2.058;2023-03-25T07:15:43;10.80;76.00
76613;DHT22;65507;48.454;-2.058;2023-03-25T07:18:09;10.90;76.00
76613;DHT22;65507;48.454;-2.058;2023-03-25T07:20:34;10.90;76.00
76613;DHT22;65507;48.454;-2.058;2023-03-25T07:23:00;10.90;76.80
76613;DHT22;65507;48.454;-2.058;2023-03-25T07:25:25;10.90;75.80
76613;DHT22;65507;48.454;-2.058;2023-03-25T07:27:51;11.00;75.90
76613;DHT22;65507;48.454;-2.058;2023-03-25T07:30:16;11.00;75.90
76613;DHT22;65507;48.454;-2.058;2023-03-25T07:32:43;11.10;75.80
76613;DHT22;65507;48.454;-2.058;2023-03-25T07:35:08;11.10;75.70
76613;DHT22;65507;48.454;-2.058;2023-03-25T07:37:34;11.10;75.70
76613;DHT22;65507;48.454;-2.058;2023-03-25T07:40:00;11.10;75.70
76613;DHT22;65507;48.454;-2.058;2023-03-25T07:42:25;11.20;75.70
76613;DHT22;65507;48.454;-2.058;2023-03-25T07:44:51;13.20;76.70
76613;DHT22;65507;48.454;-2.058;2023-03-25T07:47:16;11.20;75.60
76613;DHT22;65507;48.454;-2.058;2023-03-25T07:49:42;11.20;75.50
76613;DHT22;65507;48.454;-2.058;2023-03-25T07:52:08;11.30;75.50
76613;DHT22;65507;48.454;-2.058;2023-03-25T07:54:34;11.30;75.50
76613;DHT22;65507;48.454;-2.058;2023-03-25T07:57:00;11.40;75.40
76613;DHT22;65507;48.454;-2.058;2023-03-25T07:59:25;11.40;76.30
76613;DHT22;65507;48.454;-2.058;2023-03-25T08:01:51;11.40;75.40
76613;DHT22;65507;48.454;-2.058;2023-03-25T08:04:16;11.50;75.40
76613;DHT22;65507;48.454;-2.058;2023-03-25T08:06:42;11.50;75.30
76613;DHT22;65507;48.454;-2.058;2023-03-25T08:09:08;11.60;75.30
76613;DHT22;65507;48.454;-2.058;2023-03-25T08:11:33;11.70;75.30
76613;DHT22;65507;48.454;-2.058;2023-03-25T08:13:59;11.70;75.20
76613;DHT22;65507;48.454;-2.058;2023-03-25T08:16:24;11.80;75.30
76613;DHT22;65507;48.454;-2.058;2023-03-25T08:18:50;11.80;75.20
76613;DHT22;65507;48.454;-2.058;2023-03-25T08:21:20;11.80;75.10
76613;DHT22;65507;48.454;-2.058;2023-03-25T08:23:52;11.90;75.10
76613;DHT22;65507;48.454;-2.058;2023-03-25T08:26:23;11.90;75.10
76613;DHT22;65507;48.454;-2.058;2023-03-25T08:28:49;12.00;75.10
76613;DHT22;65507;48.454;-2.058;2023-03-25T08:31:14;12.00;75.00
76613;DHT22;65507;48.454;-2.058;2023-03-25T08:33:40;12.10;75.10
76613;DHT22;65507;48.454;-2.058;2023-03-25T08:36:08;12.10;75.10
76613;DHT22;65507;48.454;-2.058;2023-03-25T08:38:47;12.10;75.00
76613;DHT22;65507;48.454;-2.058;2023-03-25T08:41:13;12.20;75.10
76613;DHT22;65507;48.454;-2.058;2023-03-25T08:43:39;12.20;75.10
76613;DHT22;65507;48.454;-2.058;2023-03-25T08:46:04;12.20;75.00
76613;DHT22;65507;48.454;-2.058;2023-03-25T08:48:30;12.30;75.00
76613;DHT22;65507;48.454;-2.058;2023-03-25T08:50:56;12.30;75.00
76613;DHT22;65507;48.454;-2.058;2023-03-25T08:53:22;12.40;74.90
76613;DHT22;65507;48.454;-2.058;2023-03-25T08:55:51;12.50;74.90
76613;DHT22;65507;48.454;-2.058;2023-03-25T08:58:17;12.50;74.80
76613;DHT22;65507;48.454;-2.058;2023-03-25T09:00:42;12.60;74.80
76613;DHT22;65507;48.454;-2.058;2023-03-25T09:03:08;12.60;74.70
76613;DHT22;65507;48.454;-2.058;2023-03-25T09:05:35;12.70;74.60
76613;DHT22;65507;48.454;-2.058;2023-03-25T09:08:01;12.80;74.60
76613;DHT22;65507;48.454;-2.058;2023-03-25T09:10:28;12.80;74.50
76613;DHT22;65507;48.454;-2.058;2023-03-25T09:12:53;12.80;74.50
76613;DHT22;65507;48.454;-2.058;2023-03-25T09:15:19;12.90;74.60
76613;DHT22;65507;48.454;-2.058;2023-03-25T09:17:45;12.90;74.50
76613;DHT22;65507;48.454;-2.058;2023-03-25T09:20:11;13.00;74.40
76613;DHT22;65507;48.454;-2.058;2023-03-25T09:22:37;13.00;74.40
76613;DHT22;65507;48.454;-2.058;2023-03-25T09:25:02;13.10;74.40
76613;DHT22;65507;48.454;-2.058;2023-03-25T09:27:28;13.10;74.40
76613;DHT22;65507;48.454;-2.058;2023-03-25T09:29:54;13.20;74.50
76613;DHT22;65507;48.454;-2.058;2023-03-25T09:32:20;13.20;74.40
76613;DHT22;65507;48.454;-2.058;2023-03-25T09:34:46;13.20;74.20
76613;DHT22;65507;48.454;-2.058;2023-03-25T09:37:11;13.40;74.20
76613;DHT22;65507;48.454;-2.058;2023-03-25T09:39:37;13.40;74.20
76613;DHT22;65507;48.454;-2.058;2023-03-25T09:44:54;13.50;74.10
76613;DHT22;65507;48.454;-2.058;2023-03-25T09:47:18;13.50;74.00
76613;DHT22;65507;48.454;-2.058;2023-03-25T09:49:45;13.50;74.10
76613;DHT22;65507;48.454;-2.058;2023-03-25T09:52:38;13.50;74.10
76613;DHT22;65507;48.454;-2.058;2023-03-25T09:55:07;13.60;74.10
76613;DHT22;65507;48.454;-2.058;2023-03-25T09:57:35;13.70;74.00
76613;DHT22;65507;48.454;-2.058;2023-03-25T10:00:05;13.70;73.90
76613;DHT22;65507;48.454;-2.058;2023-03-25T10:02:35;13.80;73.90
76613;DHT22;65507;48.454;-2.058;2023-03-25T10:07:36;13.90;74.60
76613;DHT22;65507;48.454;-2.058;2023-03-25T10:10:26;13.90;73.70
76613;DHT22;65507;48.454;-2.058;2023-03-25T10:25:46;14.00;73.70
76613;DHT22;65507;48.454;-2.058;2023-03-25T10:28:18;14.10;73.60
76613;DHT22;65507;48.454;-2.058;2023-03-25T10:30:48;14.10;73.60
76613;DHT22;65507;48.454;-2.058;2023-03-25T10:33:15;14.10;73.60
76613;DHT22;65507;48.454;-2.058;2023-03-25T10:35:44;14.10;73.50
76613;DHT22;65507;48.454;-2.058;2023-03-25T10:40:38;14.20;73.50
76613;DHT22;65507;48.454;-2.058;2023-03-25T10:45:34;14.30;73.40
76613;DHT22;65507;48.454;-2.058;2023-03-25T10:48:03;14.40;73.40
76613;DHT22;65507;48.454;-2.058;2023-03-25T10:50:30;14.40;73.30
76613;DHT22;65507;48.454;-2.058;2023-03-25T10:52:55;14.50;73.20
76613;DHT22;65507;48.454;-2.058;2023-03-25T10:55:22;14.50;73.10
76613;DHT22;65507;48.454;-2.058;2023-03-25T10:57:49;14.50;73.20
76613;DHT22;65507;48.454;-2.058;2023-03-25T11:00:15;14.60;73.20
76613;DHT22;65507;48.454;-2.058;2023-03-25T11:02:45;14.70;73.10
76613;DHT22;65507;48.454;-2.058;2023-03-25T11:05:11;14.70;73.00
76613;DHT22;65507;48.454;-2.058;2023-03-25T11:07:41;14.80;72.90
76613;DHT22;65507;48.454;-2.058;2023-03-25T11:10:15;14.80;72.80
76613;DHT22;65507;48.454;-2.058;2023-03-25T11:12:41;14.90;72.80
76613;DHT22;65507;48.454;-2.058;2023-03-25T11:15:13;14.90;72.60
76613;DHT22;65507;48.454;-2.058;2023-03-25T11:17:40;14.90;72.60
76613;DHT22;65507;48.454;-2.058;2023-03-25T11:20:05;15.00;72.70
76613;DHT22;65507;48.454;-2.058;2023-03-25T11:22:36;15.00;72.70
76613;DHT22;65507;48.454;-2.058;2023-03-25T11:25:07;15.00;72.70
76613;DHT22;65507;48.454;-2.058;2023-03-25T11:27:40;15.10;72.70
76613;DHT22;65507;48.454;-2.058;2023-03-25T11:30:18;15.10;72.60
76613;DHT22;65507;48.454;-2.058;2023-03-25T11:32:44;15.20;72.60
76613;DHT22;65507;48.454;-2.058;2023-03-25T11:35:16;15.20;72.40
76613;DHT22;65507;48.454;-2.058;2023-03-25T11:37:46;15.20;72.40
76613;DHT22;65507;48.454;-2.058;2023-03-25T11:40:16;15.20;72.40
76613;DHT22;65507;48.454;-2.058;2023-03-25T11:42:50;15.30;72.40
76613;DHT22;65507;48.454;-2.058;2023-03-25T11:45:20;15.30;72.40
76613;DHT22;65507;48.454;-2.058;2023-03-25T11:47:46;15.30;72.40
76613;DHT22;65507;48.454;-2.058;2023-03-25T11:50:18;15.30;72.40
76613;DHT22;65507;48.454;-2.058;2023-03-25T11:52:45;15.30;72.40
76613;DHT22;65507;48.454;-2.058;2023-03-25T11:55:22;15.40;72.50
76613;DHT22;65507;48.454;-2.058;2023-03-25T11:57:49;15.30;72.40
76613;DHT22;65507;48.454;-2.058;2023-03-25T12:02:41;15.40;72.40
76613;DHT22;65507;48.454;-2.058;2023-03-25T12:07:42;15.20;72.80
76613;DHT22;65507;48.454;-2.058;2023-03-25T12:10:19;15.20;72.80
76613;DHT22;65507;48.454;-2.058;2023-03-25T12:18:32;15.10;73.10
76613;DHT22;65507;48.454;-2.058;2023-03-25T12:26:06;15.00;73.40
76613;DHT22;65507;48.454;-2.058;2023-03-25T12:31:28;14.80;73.60
76613;DHT22;65507;48.454;-2.058;2023-03-25T12:39:32;14.80;73.50
76613;DHT22;65507;48.454;-2.058;2023-03-25T12:45:02;15.00;73.10
76613;DHT22;65507;48.454;-2.058;2023-03-25T12:50:43;15.40;72.50
76613;DHT22;65507;48.454;-2.058;2023-03-25T12:53:17;15.70;71.90
76613;DHT22;65507;48.454;-2.058;2023-03-25T12:55:59;15.80;71.40
76613;DHT22;65507;48.454;-2.058;2023-03-25T12:59:01;16.00;71.30
76613;DHT22;65507;48.454;-2.058;2023-03-25T13:01:33;16.00;71.20
76613;DHT22;65507;48.454;-2.058;2023-03-25T13:14:05;16.40;70.70
76613;DHT22;65507;48.454;-2.058;2023-03-25T13:16:31;16.50;70.50
76613;DHT22;65507;48.454;-2.058;2023-03-25T13:19:02;16.50;71.30
76613;DHT22;65507;48.454;-2.058;2023-03-25T13:21:31;16.60;70.40
76613;DHT22;65507;48.454;-2.058;2023-03-25T13:24:13;16.60;70.40
76613;DHT22;65507;48.454;-2.058;2023-03-25T13:26:41;16.70;70.40
76613;DHT22;65507;48.454;-2.058;2023-03-25T13:32:16;16.70;70.40
76613;DHT22;65507;48.454;-2.058;2023-03-25T13:34:51;16.60;70.50
76613;DHT22;65507;48.454;-2.058;2023-03-25T13:43:22;16.60;70.60
76613;DHT22;65507;48.454;-2.058;2023-03-25T13:45:22;16.50;70.80
76613;DHT22;65507;48.454;-2.058;2023-03-25T13:52:49;16.50;71.10
76613;DHT22;65507;48.454;-2.058;2023-03-25T13:55:17;16.50;70.90
76613;DHT22;65507;48.454;-2.058;2023-03-25T13:57:50;16.60;70.70
76613;DHT22;65507;48.454;-2.058;2023-03-25T14:00:28;16.70;70.50
76613;DHT22;65507;48.454;-2.058;2023-03-25T14:10:52;17.20;69.00
76613;DHT22;65507;48.454;-2.058;2023-03-25T14:13:40;17.10;68.80
76613;DHT22;65507;48.454;-2.058;2023-03-25T14:16:05;17.20;68.90
76613;DHT22;65507;48.454;-2.058;2023-03-25T14:18:31;17.30;68.80
76613;DHT22;65507;48.454;-2.058;2023-03-25T14:23:41;17.40;68.60
76613;DHT22;65507;48.454;-2.058;2023-03-25T14:26:07;17.40;68.50
76613;DHT22;65507;48.454;-2.058;2023-03-25T14:28:41;17.40;68.70
76613;DHT22;65507;48.454;-2.058;2023-03-25T14:41:57;17.10;69.10
76613;DHT22;65507;48.454;-2.058;2023-03-25T14:44:23;17.10;69.10
76613;DHT22;65507;48.454;-2.058;2023-03-25T14:52:27;17.10;68.70
76613;DHT22;65507;48.454;-2.058;2023-03-25T14:54:54;17.10;68.80
76613;DHT22;65507;48.454;-2.058;2023-03-25T14:57:21;17.10;68.80
76613;DHT22;65507;48.454;-2.058;2023-03-25T14:59:49;17.00;68.70
76613;DHT22;65507;48.454;-2.058;2023-03-25T15:02:19;17.00;68.80
76613;DHT22;65507;48.454;-2.058;2023-03-25T15:04:49;16.90;68.90
76613;DHT22;65507;48.454;-2.058;2023-03-25T15:07:17;16.80;69.10
76613;DHT22;65507;48.454;-2.058;2023-03-25T15:09:49;16.80;69.10
76613;DHT22;65507;48.454;-2.058;2023-03-25T15:12:16;16.80;69.10
76613;DHT22;65507;48.454;-2.058;2023-03-25T15:14:43;16.80;69.20
76613;DHT22;65507;48.454;-2.058;2023-03-25T15:17:10;16.80;70.10
76613;DHT22;65507;48.454;-2.058;2023-03-25T15:22:21;16.80;69.10
76613;DHT22;65507;48.454;-2.058;2023-03-25T15:24:48;16.70;69.00
76613;DHT22;65507;48.454;-2.058;2023-03-25T15:43:28;16.60;69.10
76613;DHT22;65507;48.454;-2.058;2023-03-25T15:48:08;16.50;69.00
76613;DHT22;65507;48.454;-2.058;2023-03-25T15:50:53;16.60;69.00
76613;DHT22;65507;48.454;-2.058;2023-03-25T15:53:44;16.50;69.00
76613;DHT22;65507;48.454;-2.058;2023-03-25T16:01:29;16.40;69.00
76613;DHT22;65507;48.454;-2.058;2023-03-25T16:03:57;16.30;68.90
76613;DHT22;65507;48.454;-2.058;2023-03-25T16:06:23;16.30;69.00
76613;DHT22;65507;48.454;-2.058;2023-03-25T16:08:54;16.30;68.90
76613;DHT22;65507;48.454;-2.058;2023-03-25T16:11:22;16.30;68.80
76613;DHT22;65507;48.454;-2.058;2023-03-25T16:16:34;16.30;68.60
76613;DHT22;65507;48.454;-2.058;2023-03-25T16:19:04;16.30;68.50
76613;DHT22;65507;48.454;-2.058;2023-03-25T16:21:32;16.30;68.30
76613;DHT22;65507;48.454;-2.058;2023-03-25T16:24:00;16.20;68.20
76613;DHT22;65507;48.454;-2.058;2023-03-25T16:26:38;16.20;68.10
76613;DHT22;65507;48.454;-2.058;2023-03-25T16:29:23;16.00;68.10
76613;DHT22;65507;48.454;-2.058;2023-03-25T16:32:01;15.90;68.40
76613;DHT22;65507;48.454;-2.058;2023-03-25T16:34:28;15.80;68.40
76613;DHT22;65507;48.454;-2.058;2023-03-25T16:36:57;15.70;68.70
76613;DHT22;65507;48.454;-2.058;2023-03-25T16:39:23;15.60;68.80
76613;DHT22;65507;48.454;-2.058;2023-03-25T16:41:50;15.60;68.90
76613;DHT22;65507;48.454;-2.058;2023-03-25T16:44:16;15.50;69.00
76613;DHT22;65507;48.454;-2.058;2023-03-25T16:46:44;15.50;69.00
76613;DHT22;65507;48.454;-2.058;2023-03-25T16:49:19;15.40;69.00
76613;DHT22;65507;48.454;-2.058;2023-03-25T16:51:46;15.40;69.10
76613;DHT22;65507;48.454;-2.058;2023-03-25T16:55:04;15.30;69.10
76613;DHT22;65507;48.454;-2.058;2023-03-25T16:57:07;15.30;69.10
76613;DHT22;65507;48.454;-2.058;2023-03-25T16:59:36;15.20;69.20
76613;DHT22;65507;48.454;-2.058;2023-03-25T17:02:02;15.10;69.40
76613;DHT22;65507;48.454;-2.058;2023-03-25T17:04:36;15.00;69.60
76613;DHT22;65507;48.454;-2.058;2023-03-25T17:07:13;15.00;69.50
76613;DHT22;65507;48.454;-2.058;2023-03-25T17:09:39;15.00;69.50
76613;DHT22;65507;48.454;-2.058;2023-03-25T17:12:14;14.90;69.50
76613;DHT22;65507;48.454;-2.058;2023-03-25T17:14:41;14.80;69.50
76613;DHT22;65507;48.454;-2.058;2023-03-25T17:17:22;14.70;69.60
76613;DHT22;65507;48.454;-2.058;2023-03-25T17:19:51;14.70;69.70
76613;DHT22;65507;48.454;-2.058;2023-03-25T17:22:23;14.60;69.80
76613;DHT22;65507;48.454;-2.058;2023-03-25T17:25:11;14.60;69.90
76613;DHT22;65507;48.454;-2.058;2023-03-25T17:27:36;14.50;69.80
76613;DHT22;65507;48.454;-2.058;2023-03-25T17:32:43;14.50;70.00
76613;DHT22;65507;48.454;-2.058;2023-03-25T17:35:15;14.40;69.90
76613;DHT22;65507;48.454;-2.058;2023-03-25T17:37:41;14.40;70.00
76613;DHT22;65507;48.454;-2.058;2023-03-25T17:40:07;14.30;70.00
76613;DHT22;65507;48.454;-2.058;2023-03-25T17:42:35;14.30;70.00
76613;DHT22;65507;48.454;-2.058;2023-03-25T17:45:02;14.30;70.10
76613;DHT22;65507;48.454;-2.058;2023-03-25T17:47:27;14.20;70.10
76613;DHT22;65507;48.454;-2.058;2023-03-25T17:49:53;14.20;70.30
76613;DHT22;65507;48.454;-2.058;2023-03-25T17:52:19;14.10;70.20
76613;DHT22;65507;48.454;-2.058;2023-03-25T17:54:44;14.10;70.20
76613;DHT22;65507;48.454;-2.058;2023-03-25T17:57:15;14.10;70.20
76613;DHT22;65507;48.454;-2.058;2023-03-25T17:59:41;14.10;70.30
76613;DHT22;65507;48.454;-2.058;2023-03-25T18:02:14;14.00;70.30
76613;DHT22;65507;48.454;-2.058;2023-03-25T18:04:40;14.00;70.40
76613;DHT22;65507;48.454;-2.058;2023-03-25T18:07:05;13.90;70.50
76613;DHT22;65507;48.454;-2.058;2023-03-25T18:09:31;13.80;70.60
76613;DHT22;65507;48.454;-2.058;2023-03-25T18:11:57;13.80;70.70
76613;DHT22;65507;48.454;-2.058;2023-03-25T18:14:24;13.70;70.80
76613;DHT22;65507;48.454;-2.058;2023-03-25T18:16:50;13.70;70.90
76613;DHT22;65507;48.454;-2.058;2023-03-25T18:19:17;13.60;70.90